Time;durP1;ratioP1;P1;durP2;ratioP2;P2;SDS_P1;SDS_P2;PMS_P1;PMS_P2;Temp;Humidity;BMP_temperature;BMP_pressure;BME280_temperature;BME280_humidity;BME280_pressure;Samples;Min_cycle;Max_cycle;Signal;HPM_P1;HPM_P2
2023/08/15 00:01:49;;;;;;;8.32;6.88;;;;;;;-145.63;57.01;38728.97;5036649;28;20032;-68
2023/08/15 00:04:15;;;;;;;7.68;6.75;;;;;;;-145.63;57.26;38727.00;5037682;28;20053;-68
2023/08/15 00:06:41;;;;;;;9.38;7.38;;;;;;;-145.63;57.40;38711.38;5026347;28;20034;-68
2023/08/15 00:09:06;;;;;;;10.48;7.47;;;;;;;-145.63;57.15;38684.00;5044759;28;20152;-68
2023/08/15 00:11:32;;;;;;;8.98;7.05;;;;;;;-145.63;57.09;38730.91;5027920;28;20030;-68
2023/08/15 00:13:57;;;;;;;9.02;6.63;;;;;;;-145.63;57.20;38707.44;5037195;28;20021;-69
2023/08/15 00:16:23;;;;;;;9.18;6.82;;;;;;;-145.63;57.44;38717.22;5036964;28;20280;-69
2023/08/15 00:18:49;;;;;;;8.60;6.88;;;;;;;-145.63;57.38;38734.81;5024909;28;20025;-69
2023/08/15 00:21:15;;;;;;;12.65;7.70;;;;;;;-145.63;57.51;38750.47;5024910;28;20333;-69
2023/08/15 00:23:41;;;;;;;14.27;7.68;;;;;;;-145.63;57.36;38754.38;5024802;28;20318;-69
2023/08/15 00:26:06;;;;;;;9.80;7.50;;;;;;;-145.63;57.34;38738.75;5024343;28;20034;-68
2023/08/15 00:28:32;;;;;;;9.10;7.50;;;;;;;-145.63;57.58;38738.75;5030191;28;20041;-68
2023/08/15 00:30:58;;;;;;;11.55;7.25;;;;;;;-145.63;57.50;38754.38;5035251;28;20032;-68
2023/08/15 00:33:23;;;;;;;7.93;6.97;;;;;;;-145.63;57.44;38727.00;5037501;28;20033;-68
2023/08/15 00:35:49;;;;;;;10.48;6.95;;;;;;;-145.63;57.50;38756.34;5044331;28;20060;-68
2023/08/15 00:38:15;;;;;;;9.73;7.75;;;;;;;-145.63;57.81;38744.59;5029671;28;20075;-67
2023/08/15 00:40:41;;;;;;;12.82;7.05;;;;;;;-145.63;57.46;38758.28;5031142;28;20025;-69
2023/08/15 00:43:10;;;;;;;8.65;7.35;;;;;;;-145.63;57.91;38687.91;5029701;28;20036;-68
2023/08/15 00:45:38;;;;;;;7.65;6.85;;;;;;;-145.63;57.74;38732.88;5040201;28;20053;-69
2023/08/15 00:48:06;;;;;;;8.20;7.07;;;;;;;-145.63;57.62;38844.34;5024774;28;20022;-68
2023/08/15 00:50:33;;;;;;;10.95;7.63;;;;;;;-145.63;57.68;38773.94;5028446;28;20021;-68
2023/08/15 00:53:00;;;;;;;8.55;7.38;;;;;;;-145.63;57.43;38785.66;5044042;28;20018;-67
2023/08/15 00:55:26;;;;;;;8.98;7.75;;;;;;;-145.63;57.78;38766.13;5039553;28;20026;-70
2023/08/15 00:57:52;;;;;;;10.80;7.95;;;;;;;-145.63;57.62;38773.94;5033078;28;20341;-68
2023/08/15 01:00:18;;;;;;;7.97;7.07;;;;;;;-145.63;57.76;38756.34;5043945;28;20044;-69
2023/08/15 01:02:44;;;;;;;8.65;7.50;;;;;;;-145.63;57.74;38752.44;5025685;28;20210;-69
2023/08/15 01:05:11;;;;;;;13.63;7.57;;;;;;;-145.63;58.01;38785.66;5037259;28;20037;-69
2023/08/15 01:07:37;;;;;;;9.27;7.60;;;;;;;-145.63;57.84;38781.75;5039516;28;20033;-68
2023/08/15 01:10:03;;;;;;;11.95;7.95;;;;;;;-145.63;57.72;38764.16;5039322;28;20402;-69
2023/08/15 01:12:46;;;;;;;9.20;6.95;;;;;;;-145.63;57.74;38768.06;5024125;28;20032;-68
2023/08/15 01:15:18;;;;;;;8.65;7.60;;;;;;;-145.63;57.78;38764.16;5023709;28;20042;-68
2023/08/15 01:17:57;;;;;;;9.65;7.65;;;;;;;-145.63;57.76;38770.03;5041606;28;20038;-69
2023/08/15 01:20:27;;;;;;;12.80;7.90;;;;;;;-145.63;57.87;38197.13;5043546;28;20040;-68
2023/08/15 01:22:53;;;;;;;9.48;7.35;;;;;;;-145.63;57.85;38764.16;5032479;28;20029;-68
2023/08/15 01:25:19;;;;;;;9.32;7.35;;;;;;;-145.63;57.82;38771.97;5023523;28;20034;-68
2023/08/15 01:27:45;;;;;;;11.05;8.00;;;;;;;-145.63;58.01;38748.50;5025665;28;20037;-69
2023/08/15 01:30:14;;;;;;;10.82;7.97;;;;;;;-145.63;58.22;38856.06;5035036;28;20318;-69
2023/08/15 01:33:07;;;;;;;11.45;7.85;;;;;;;-145.63;58.06;38815.00;5042829;28;20325;-69
2023/08/15 01:35:41;;;;;;;10.85;7.90;;;;;;;-145.63;58.08;38803.28;5019300;28;20060;-70
2023/08/15 01:38:23;;;;;;;9.90;8.32;;;;;;;-145.63;58.10;38766.13;5023434;28;20299;-69
2023/08/15 01:40:53;;;;;;;11.02;8.07;;;;;;;-145.63;57.99;38768.06;5029088;28;20033;-69
2023/08/15 01:43:20;;;;;;;9.15;8.10;;;;;;;-145.63;57.99;38836.50;5024297;28;20293;-69
2023/08/15 01:45:46;;;;;;;12.18;7.75;;;;;;;-145.63;57.88;38818.91;5041547;28;20036;-69
2023/08/15 01:48:12;;;;;;;8.50;7.60;;;;;;;-145.63;58.01;38795.44;5023441;28;20038;-68
2023/08/15 01:50:38;;;;;;;8.25;7.40;;;;;;;-145.63;58.12;38779.81;5040378;28;20044;-69
2023/08/15 01:53:03;;;;;;;10.80;7.45;;;;;;;-145.63;58.02;38836.50;5031110;28;20025;-69
2023/08/15 01:55:29;;;;;;;11.30;7.38;;;;;;;-145.63;58.25;38805.22;5026157;28;20030;-67
2023/08/15 01:57:54;;;;;;;9.95;7.40;;;;;;;-145.63;58.34;38781.75;5022267;28;20289;-68
2023/08/15 02:00:20;;;;;;;9.27;7.55;;;;;;;-145.63;58.30;38773.94;5023312;28;20302;-69
2023/08/15 02:02:46;;;;;;;16.45;11.70;;;;;;;-145.63;58.30;38807.19;5040867;28;20033;-69
2023/08/15 02:05:13;;;;;;;15.95;13.70;;;;;;;-145.63;58.11;38805.22;5038555;28;20041;-68
2023/08/15 02:07:39;;;;;;;10.68;8.65;;;;;;;-145.63;58.38;38818.91;5022978;28;20510;-68
2023/08/15 02:10:05;;;;;;;12.23;10.80;;;;;;;-145.63;58.17;38832.59;5026989;28;20087;-68
2023/08/15 02:12:32;;;;;;;19.23;17.20;;;;;;;-145.63;58.00;38824.78;5042998;28;20022;-69
2023/08/15 02:14:59;;;;;;;13.95;9.77;;;;;;;-145.63;58.06;38816.97;5023668;28;20018;-69
2023/08/15 02:17:25;;;;;;;11.73;9.48;;;;;;;-145.63;58.25;38832.59;5038156;28;20041;-69
2023/08/15 02:20:11;;;;;;;14.80;9.13;;;;;;;-145.63;58.40;38840.44;5022171;28;20084;-69
2023/08/15 02:22:36;;;;;;;13.57;8.80;;;;;;;-145.63;58.36;38811.09;5023010;28;20317;-68
2023/08/15 02:25:02;;;;;;;11.02;8.43;;;;;;;-145.63;58.69;38822.81;5026401;28;20025;-69
2023/08/15 02:27:32;;;;;;;25.27;7.90;;;;;;;-145.63;58.49;38836.50;5043109;28;20054;-68
2023/08/15 02:29:57;;;;;;;9.95;8.23;;;;;;;-145.63;58.62;38852.16;5027742;28;20501;-68
2023/08/15 02:32:23;;;;;;;13.50;9.10;;;;;;;-145.63;58.61;38809.13;5037164;28;20088;-68
2023/08/15 02:34:49;;;;;;;11.77;8.95;;;;;;;-145.63;58.59;38818.91;5034261;28;20037;-69
2023/08/15 02:37:15;;;;;;;13.02;8.15;;;;;;;-145.63;58.76;38815.00;5027833;28;20030;-67
2023/08/15 02:39:41;;;;;;;9.63;7.63;;;;;;;-145.63;58.84;38813.03;5027239;28;20032;-68
2023/08/15 02:42:07;;;;;;;10.02;8.40;;;;;;;-145.63;58.58;38791.53;5041765;28;20034;-68
2023/08/15 02:44:33;;;;;;;8.68;7.47;;;;;;;-145.63;58.76;38838.47;5036428;28;20052;-68
2023/08/15 02:46:59;;;;;;;10.20;7.53;;;;;;;-145.63;58.76;38836.50;5035437;28;20033;-69
2023/08/15 02:49:24;;;;;;;9.73;8.23;;;;;;;-145.63;58.82;38836.50;5032853;28;20044;-69
2023/08/15 02:51:50;;;;;;;9.63;7.85;;;;;;;-145.63;58.69;38865.84;5044580;28;20031;-70
2023/08/15 02:54:16;;;;;;;11.27;7.38;;;;;;;-145.63;58.66;38805.22;5024999;28;20298;-69
2023/08/15 02:56:42;;;;;;;10.77;8.13;;;;;;;-145.63;58.76;38809.13;5043264;28;20032;-68
2023/08/15 02:59:07;;;;;;;8.40;7.45;;;;;;;-145.63;58.81;38801.31;5033867;28;20022;-69
2023/08/15 03:01:33;;;;;;;10.02;8.15;;;;;;;-145.63;58.57;38820.88;5033927;28;20083;-68
2023/08/15 03:03:59;;;;;;;10.38;8.30;;;;;;;-145.63;58.77;38818.91;5043217;28;21647;-68
2023/08/15 03:06:25;;;;;;;12.63;8.43;;;;;;;-145.63;58.65;38793.50;5026212;28;20052;-68
2023/08/15 03:08:50;;;;;;;9.70;8.00;;;;;;;-145.63;58.66;38727.00;5042761;28;20021;-69
2023/08/15 03:11:16;;;;;;;11.23;8.57;;;;;;;-145.63;58.53;38908.88;5032643;28;20046;-69
2023/08/15 03:13:41;;;;;;;8.50;7.32;;;;;;;-145.63;58.78;38762.22;5042194;28;20303;-68
2023/08/15 03:16:07;;;;;;;10.10;8.20;;;;;;;-145.63;58.75;38770.03;5040044;28;20034;-69
2023/08/15 03:18:33;;;;;;;12.02;8.18;;;;;;;-145.63;58.51;38793.50;5026003;28;20147;-68
2023/08/15 03:21:01;;;;;;;9.45;7.47;;;;;;;-145.63;58.29;38764.16;5044767;28;20030;-69
2023/08/15 03:23:27;;;;;;;8.73;7.93;;;;;;;-145.63;58.43;38771.97;5031110;28;20048;-69
2023/08/15 03:25:56;;;;;;;8.52;7.55;;;;;;;-145.63;58.24;38756.34;5026242;28;20434;-69
2023/08/15 03:28:22;;;;;;;7.90;7.00;;;;;;;-145.63;58.16;38768.06;5029514;28;20049;-69
2023/08/15 03:30:48;;;;;;;9.90;7.70;;;;;;;-145.63;58.28;38752.44;5029336;28;20061;-70
2023/08/15 03:33:15;;;;;;;10.82;8.38;;;;;;;-145.63;58.08;38768.06;5044383;28;20032;-69
2023/08/15 03:35:47;;;;;;;12.02;8.10;;;;;;;-145.63;58.01;38746.56;5042013;28;20064;-69
2023/08/15 03:38:18;;;;;;;11.30;7.55;;;;;;;-145.63;57.80;38740.69;5032813;28;20022;-69
2023/08/15 03:40:44;;;;;;;11.38;7.82;;;;;;;-145.63;57.72;38725.06;5030102;28;20049;-69
2023/08/15 03:43:11;;;;;;;10.52;7.63;;;;;;;-145.63;57.67;38709.41;5039270;28;20038;-68
2023/08/15 03:45:37;;;;;;;9.57;8.43;;;;;;;-145.63;57.23;38672.25;5025632;28;20034;-69
2023/08/15 03:48:08;;;;;;;10.70;7.95;;;;;;;-145.63;57.25;38691.81;5044710;28;20029;-68
2023/08/15 03:50:38;;;;;;;9.23;7.70;;;;;;;-145.63;56.72;38707.44;5045109;28;20128;-70
2023/08/15 03:53:04;;;;;;;9.20;8.32;;;;;;;-145.63;56.92;38672.25;5033961;28;20026;-68
2023/08/15 03:55:31;;;;;;;9.95;8.27;;;;;;;-145.63;56.80;38691.81;5030676;28;20032;-69
2023/08/15 03:57:57;;;;;;;9.35;7.18;;;;;;;-145.63;56.74;38699.63;5042889;28;20040;-69
2023/08/15 04:00:24;;;;;;;8.55;7.43;;;;;;;-145.63;56.89;38656.59;5025621;28;20021;-69
2023/08/15 04:02:50;;;;;;;8.98;7.55;;;;;;;-145.63;56.68;38662.47;5042322;28;20039;-68
2023/08/15 04:05:17;;;;;;;12.60;7.55;;;;;;;-145.63;56.25;38629.22;5032490;28;20103;-69
2023/08/15 04:07:44;;;;;;;11.00;7.95;;;;;;;-145.63;56.06;38648.78;5033174;28;20059;-69
2023/08/15 04:10:13;;;;;;;8.73;7.90;;;;;;;-145.63;56.09;38631.19;5040994;28;20038;-69
2023/08/15 04:12:40;;;;;;;11.27;8.25;;;;;;;-145.63;56.07;38601.84;5023805;28;20022;-68
2023/08/15 04:15:06;;;;;;;9.30;7.53;;;;;;;-145.63;56.01;38621.41;5044071;28;20088;-69
2023/08/15 04:17:32;;;;;;;8.38;7.57;;;;;;;-145.63;55.83;38599.91;5030072;28;20034;-68
2023/08/15 04:19:57;;;;;;;9.25;7.97;;;;;;;-145.63;55.72;38629.22;5033473;28;20040;-68
2023/08/15 04:22:23;;;;;;;10.10;7.70;;;;;;;-145.63;55.37;38621.41;5039254;28;20022;-68
2023/08/15 04:24:48;;;;;;;8.35;6.93;;;;;;;-145.63;55.44;38457.16;5024511;28;20030;-69
2023/08/15 04:27:14;;;;;;;7.18;6.43;;;;;;;-145.63;55.41;38615.53;5024767;28;20076;-69
2023/08/15 04:29:40;;;;;;;8.65;7.70;;;;;;;-145.63;55.02;38599.91;5027435;28;20025;-69
2023/08/15 04:32:06;;;;;;;10.05;6.50;;;;;;;-145.63;55.09;38578.41;5028275;28;20025;-70
2023/08/15 04:34:32;;;;;;;10.48;7.88;;;;;;;-145.63;55.15;38603.81;5031407;28;20218;-69
2023/08/15 04:36:57;;;;;;;9.00;6.90;;;;;;;-145.63;54.90;38554.94;5025930;28;20105;-69
2023/08/15 04:39:24;;;;;;;7.13;6.25;;;;;;;-145.63;54.62;38537.34;5026803;28;20021;-72
2023/08/15 04:41:50;;;;;;;12.25;7.47;;;;;;;-145.63;54.44;38603.81;5028427;28;20029;-69
2023/08/15 04:44:16;;;;;;;7.47;6.45;;;;;;;-145.63;53.78;38539.28;5035932;28;20036;-69
2023/08/15 04:46:41;;;;;;;8.50;6.47;;;;;;;-145.63;54.04;38504.09;5036568;28;20018;-70
2023/08/15 04:49:07;;;;;;;8.98;6.32;;;;;;;-145.63;53.84;38500.19;5027066;28;20026;-69
2023/08/15 04:51:33;;;;;;;12.02;7.68;;;;;;;-145.63;53.93;38558.84;5043572;28;20025;-69
2023/08/15 04:53:58;;;;;;;6.97;6.00;;;;;;;-145.63;53.81;38515.81;5033686;28;20049;-70
2023/08/15 04:56:24;;;;;;;9.65;6.82;;;;;;;-145.63;53.38;38531.47;5043944;28;20032;-69
2023/08/15 04:58:50;;;;;;;7.70;6.43;;;;;;;-145.63;53.40;38506.03;5043839;28;20384;-70
2023/08/15 05:01:15;;;;;;;6.95;5.90;;;;;;;-145.63;53.65;38496.28;5036719;28;20242;-71
2023/08/15 05:03:41;;;;;;;9.48;5.85;;;;;;;-145.63;53.22;38492.34;5040708;28;20108;-70
2023/08/15 05:06:07;;;;;;;7.05;6.35;;;;;;;-145.63;52.90;38416.09;5034106;28;20052;-69
2023/08/15 05:08:33;;;;;;;8.25;6.05;;;;;;;-145.63;52.30;38378.94;5037967;28;20029;-69
2023/08/15 05:11:00;;;;;;;11.90;6.80;;;;;;;-145.63;51.07;38306.59;5033870;28;20048;-70
2023/08/15 05:13:26;;;;;;;6.85;6.20;;;;;;;-145.63;50.64;38294.88;5025796;28;20183;-69
2023/08/15 05:15:52;;;;;;;8.48;5.75;;;;;;;-145.63;50.89;38283.16;5023186;28;20132;-70
2023/08/15 05:18:20;;;;;;;9.13;6.10;;;;;;;-145.63;50.72;37516.75;5028626;28;20053;-69
2023/08/15 05:20:46;;;;;;;9.88;6.55;;;;;;;-145.63;49.28;38259.69;5035383;28;20049;-70
2023/08/15 05:23:12;;;;;;;10.75;5.72;;;;;;;-145.63;49.53;38263.59;5034750;28;20017;-69
2023/08/15 05:25:38;;;;;;;9.07;5.60;;;;;;;-145.63;49.83;38265.53;5034424;28;20041;-68
2023/08/15 05:28:07;;;;;;;8.10;5.75;;;;;;;-145.63;49.93;38222.53;5024133;28;20033;-69
2023/08/15 05:30:33;;;;;;;7.72;5.40;;;;;;;-145.63;50.33;38257.72;5034209;28;20044;-69
2023/08/15 05:32:59;;;;;;;11.13;6.25;;;;;;;-145.63;49.44;38251.84;5031215;28;20026;-69
2023/08/15 05:35:25;;;;;;;7.88;5.93;;;;;;;-145.63;48.82;38259.69;5025909;28;20033;-70
2023/08/15 05:37:50;;;;;;;8.20;5.60;;;;;;;-145.63;47.73;38328.13;5031709;28;20068;-70
2023/08/15 05:40:16;;;;;;;9.70;5.80;;;;;;;-145.63;48.29;38255.78;5039285;28;20076;-70
2023/08/15 05:42:41;;;;;;;7.57;5.93;;;;;;;-145.63;48.09;38259.69;5043080;28;20254;-69
2023/08/15 05:45:08;;;;;;;7.50;6.00;;;;;;;-145.63;49.36;38242.09;5040174;28;20013;-70
2023/08/15 05:47:35;;;;;;;7.53;6.53;;;;;;;-145.63;48.98;38296.81;5029119;28;20196;-70
2023/08/15 05:50:01;;;;;;;9.48;5.97;;;;;;;-145.63;49.27;38496.28;5026960;28;20037;-69
2023/08/15 05:52:28;;;;;;;11.38;6.05;;;;;;;-145.63;48.68;38202.97;5023582;28;20063;-70
2023/08/15 05:55:04;;;;;;;6.93;5.57;;;;;;;-145.63;48.02;38210.81;5022687;28;20029;-68
2023/08/15 05:57:31;;;;;;;8.98;5.88;;;;;;;-145.63;48.53;38240.13;5022266;28;20219;-69
2023/08/15 05:59:56;;;;;;;8.52;5.60;;;;;;;-145.63;48.96;38234.25;5040137;28;20032;-69
2023/08/15 06:02:22;;;;;;;9.77;5.47;;;;;;;-145.63;48.44;38185.38;5042639;28;20030;-68
2023/08/15 06:04:48;;;;;;;9.25;5.35;;;;;;;-145.63;48.14;38183.44;5037604;28;20330;-67
2023/08/15 06:07:13;;;;;;;7.65;5.55;;;;;;;-145.63;48.06;38150.19;5032671;28;20034;-68
2023/08/15 06:09:39;;;;;;;9.40;5.43;;;;;;;-145.63;48.12;38210.81;5033921;28;20285;-69
2023/08/15 06:12:05;;;;;;;8.75;5.15;;;;;;;-145.63;47.56;38179.50;5034928;28;20021;-69
2023/08/15 06:14:32;;;;;;;8.82;5.35;;;;;;;-145.63;47.42;38175.59;5035422;28;20037;-68
2023/08/15 06:16:58;;;;;;;9.07;5.63;;;;;;;-145.63;47.85;38148.22;5035803;28;20022;-67
2023/08/15 06:19:23;;;;;;;7.63;5.47;;;;;;;-145.63;47.89;38132.59;5036132;28;20083;-68
2023/08/15 06:21:49;;;;;;;7.82;5.30;;;;;;;-145.63;48.18;38115.00;5038664;28;20290;-68
2023/08/15 06:24:14;;;;;;;8.43;5.28;;;;;;;-145.63;47.75;38161.91;5034716;28;20029;-68
2023/08/15 06:26:40;;;;;;;9.48;4.97;;;;;;;-145.63;47.09;38093.50;5036085;28;20030;-69
2023/08/15 06:29:07;;;;;;;9.13;8.20;;;;;;;-145.63;46.52;38120.88;5035830;28;20033;-67
2023/08/15 06:31:33;;;;;;;6.43;5.13;;;;;;;-145.63;47.53;38073.94;5041113;28;20029;-69
2023/08/15 06:34:01;;;;;;;10.25;5.10;;;;;;;-145.63;46.16;38038.75;5045557;28;20031;-67
2023/08/15 06:36:27;;;;;;;6.90;4.75;;;;;;;-145.63;45.85;38050.47;5025738;28;20025;-67
2023/08/15 06:38:53;;;;;;;6.43;4.03;;;;;;;-145.63;45.41;38034.84;5042915;28;20033;-68
2023/08/15 06:41:18;;;;;;;7.90;4.57;;;;;;;-145.63;45.53;37841.28;5043010;28;20075;-70
2023/08/15 06:43:44;;;;;;;6.07;4.38;;;;;;;-145.63;45.32;38095.44;5045976;28;20048;-70
2023/08/15 06:46:14;;;;;;;7.10;4.70;;;;;;;-145.63;45.10;38015.28;5046299;28;20032;-68
2023/08/15 06:48:41;;;;;;;7.63;3.97;;;;;;;-145.63;45.15;38019.19;5046034;28;20036;-70
2023/08/15 06:51:07;;;;;;;5.40;4.78;;;;;;;-145.63;44.64;38019.19;5027788;28;20034;-70
2023/08/15 06:53:33;;;;;;;7.05;4.43;;;;;;;-145.63;45.37;37985.97;5026539;28;20137;-69
2023/08/15 06:55:59;;;;;;;6.90;4.82;;;;;;;-145.63;44.48;38011.38;5035053;28;20045;-69
2023/08/15 06:58:25;;;;;;;5.07;4.32;;;;;;;-145.63;44.08;37980.09;5041978;28;20087;-70
2023/08/15 07:00:51;;;;;;;7.82;4.60;;;;;;;-145.63;43.90;37941.00;5026219;28;20093;-69
2023/08/15 07:03:18;;;;;;;6.78;4.70;;;;;;;-145.63;43.55;37941.00;5045351;28;20148;-68
2023/08/15 07:05:45;;;;;;;6.40;5.10;;;;;;;-145.63;43.22;37952.72;5033703;28;20029;-68
2023/08/15 07:08:13;;;;;;;7.80;4.10;;;;;;;-145.63;43.62;37909.72;5046067;28;20037;-69
2023/08/15 07:10:39;;;;;;;6.55;4.60;;;;;;;-145.63;42.54;37874.53;5045658;28;20033;-69
2023/08/15 07:13:05;;;;;;;7.82;4.82;;;;;;;-145.63;42.75;37870.59;5043321;28;20356;-69
2023/08/15 07:15:32;;;;;;;8.90;4.80;;;;;;;-145.63;43.06;37897.97;5025407;28;20026;-69
2023/08/15 07:17:58;;;;;;;8.05;4.72;;;;;;;-145.63;43.01;37882.34;5025849;28;20219;-69
2023/08/15 07:20:24;;;;;;;6.35;4.60;;;;;;;-145.63;43.36;37901.88;5026524;28;20053;-68
2023/08/15 07:22:50;;;;;;;5.18;4.25;;;;;;;-145.63;42.40;37854.97;5033188;28;20064;-69
2023/08/15 07:25:16;;;;;;;8.43;4.47;;;;;;;-145.63;42.21;37849.09;5043197;28;20245;-69
2023/08/15 07:27:41;;;;;;;6.22;4.40;;;;;;;-145.63;42.46;37788.50;5043143;28;20022;-69
2023/08/15 07:30:08;;;;;;;6.57;4.82;;;;;;;-145.63;41.91;37811.97;5045359;28;20033;-68
2023/08/15 07:32:37;;;;;;;6.15;4.25;;;;;;;-145.63;42.71;37843.25;5045346;28;20099;-69
2023/08/15 07:35:07;;;;;;;7.60;4.10;;;;;;;-145.63;43.45;37810.00;5036690;28;20059;-69
2023/08/15 07:37:33;;;;;;;8.32;4.72;;;;;;;-145.63;42.77;37866.69;5025367;28;20033;-68
2023/08/15 07:40:08;;;;;;;11.52;5.18;;;;;;;-145.63;43.04;37776.78;5034781;28;20045;-68
2023/08/15 07:42:34;;;;;;;5.05;4.63;;;;;;;-145.63;43.07;37847.16;5032618;28;20033;-68
2023/08/15 07:45:00;;;;;;;6.85;4.43;;;;;;;-145.63;42.05;37794.38;5033203;28;20025;-69
2023/08/15 07:47:26;;;;;;;6.20;4.10;;;;;;;-145.63;41.68;37761.13;5030172;28;20096;-69
2023/08/15 07:50:17;;;;;;;5.50;4.18;;;;;;;-145.63;41.10;37790.44;5028894;28;20270;-68
2023/08/15 07:52:44;;;;;;;9.57;4.85;;;;;;;-145.63;41.49;37790.44;5033083;28;20057;-68
2023/08/15 07:55:10;;;;;;;4.82;4.13;;;;;;;-145.63;42.18;37831.50;5039251;28;20334;-69
2023/08/15 07:57:36;;;;;;;6.78;4.35;;;;;;;-145.63;41.63;37788.50;5034855;28;20303;-68
2023/08/15 08:00:03;;;;;;;7.63;4.65;;;;;;;-145.63;41.95;37810.00;5027173;28;20060;-68
2023/08/15 08:02:30;;;;;;;6.95;4.28;;;;;;;-145.63;42.86;37849.09;5034665;28;20030;-68
2023/08/15 08:04:56;;;;;;;6.45;4.20;;;;;;;-145.63;41.23;37835.41;5034145;28;20186;-69
2023/08/15 08:07:22;;;;;;;5.03;4.53;;;;;;;-145.63;42.03;37763.09;5032522;28;20034;-70
2023/08/15 08:09:47;;;;;;;6.15;3.80;;;;;;;-145.63;42.48;37706.38;5034105;28;20214;-70
2023/08/15 08:12:13;;;;;;;6.30;3.55;;;;;;;-145.63;41.71;37696.63;5039773;28;20101;-70
2023/08/15 08:14:39;;;;;;;7.40;4.13;;;;;;;-145.63;40.54;37696.63;5040312;28;20025;-71
2023/08/15 08:17:05;;;;;;;6.15;4.15;;;;;;;-145.63;39.83;37694.66;5028031;28;20097;-70
2023/08/15 08:19:31;;;;;;;6.55;4.00;;;;;;;-145.63;41.20;37669.25;5028371;28;20021;-69
2023/08/15 08:21:56;;;;;;;6.22;3.88;;;;;;;-145.63;40.51;37682.94;5024653;28;20052;-69
2023/08/15 08:24:22;;;;;;;7.80;4.05;;;;;;;-145.63;40.75;37690.75;5036542;28;20092;-68
2023/08/15 08:26:49;;;;;;;4.20;3.80;;;;;;;-145.63;40.97;37677.06;5042088;28;20033;-68
2023/08/15 08:29:15;;;;;;;5.57;4.40;;;;;;;-145.63;40.80;37667.28;5044318;28;20034;-69
2023/08/15 08:31:41;;;;;;;5.40;3.75;;;;;;;-145.63;40.74;37663.38;5039033;28;20044;-69
2023/08/15 08:34:14;;;;;;;5.85;3.85;;;;;;;-145.63;40.55;37776.78;5038008;28;20033;-69
2023/08/15 08:36:40;;;;;;;7.63;4.60;;;;;;;-145.63;41.33;37720.06;5025383;28;20025;-68
2023/08/15 08:39:07;;;;;;;6.75;4.00;;;;;;;-145.63;40.51;37647.75;5034492;28;20054;-68
2023/08/15 08:41:35;;;;;;;4.75;3.60;;;;;;;-145.63;41.29;37620.38;5028190;28;20254;-68
2023/08/15 08:44:02;;;;;;;5.57;4.32;;;;;;;-145.63;41.42;37673.16;5023960;28;20025;-70
2023/08/15 08:46:28;;;;;;;7.35;4.22;;;;;;;-145.63;40.57;37583.22;5037573;28;20024;-69
2023/08/15 08:48:56;;;;;;;7.35;4.15;;;;;;;-145.63;39.69;37659.47;5036769;28;20088;-69
2023/08/15 08:51:23;;;;;;;6.25;4.00;;;;;;;-145.63;41.26;37643.84;5031498;28;20048;-68
2023/08/15 08:53:48;;;;;;;4.40;4.00;;;;;;;-145.63;41.59;37641.88;5043888;28;20029;-69
2023/08/15 08:56:17;;;;;;;4.63;4.15;;;;;;;-145.63;41.36;37663.38;5042567;28;20029;-69
2023/08/15 08:58:48;;;;;;;6.70;4.13;;;;;;;-145.63;41.50;37653.59;5044050;28;20032;-68
2023/08/15 09:01:14;;;;;;;5.60;4.40;;;;;;;-145.63;40.35;37636.00;5026189;28;20076;-69
2023/08/15 09:03:40;;;;;;;6.05;4.50;;;;;;;-145.63;40.15;37669.25;5024155;28;20096;-69
2023/08/15 09:06:07;;;;;;;7.85;4.90;;;;;;;-145.63;40.70;37647.75;5031876;28;20037;-69
2023/08/15 09:08:33;;;;;;;5.28;4.28;;;;;;;-145.63;41.37;37655.56;5041520;28;20227;-69
2023/08/15 09:10:58;;;;;;;4.38;4.05;;;;;;;-145.63;41.54;37671.19;5040308;28;20028;-70
2023/08/15 09:13:24;;;;;;;6.63;4.35;;;;;;;-145.63;42.41;37698.56;5029509;28;20032;-68
2023/08/15 09:15:51;;;;;;;6.05;4.97;;;;;;;-145.63;41.31;37667.28;5030575;28;20037;-68
2023/08/15 09:18:24;;;;;;;5.38;4.70;;;;;;;-145.63;41.29;37682.94;5032110;28;20053;-69
2023/08/15 09:20:49;;;;;;;7.00;4.60;;;;;;;-145.63;41.03;37673.16;5030252;28;20037;-68
2023/08/15 09:23:16;;;;;;;6.22;4.35;;;;;;;-145.63;40.56;37743.53;5028694;28;20048;-68
2023/08/15 09:25:42;;;;;;;6.93;4.05;;;;;;;-145.63;41.15;37731.81;5034423;28;20020;-68
2023/08/15 09:28:07;;;;;;;5.13;4.40;;;;;;;-145.63;41.42;37700.53;5024146;28;20052;-68
2023/08/15 09:30:33;;;;;;;5.88;4.50;;;;;;;-145.63;41.27;37675.09;5030802;28;20087;-69
2023/08/15 09:33:01;;;;;;;8.82;4.70;;;;;;;-145.63;41.49;37680.97;5034639;28;20337;-68
2023/08/15 09:35:26;;;;;;;6.70;4.85;;;;;;;-145.63;40.86;37718.13;5029733;28;20032;-67
2023/08/15 09:37:53;;;;;;;7.03;4.47;;;;;;;-145.63;41.66;37682.94;5041486;28;20119;-67
2023/08/15 09:40:22;;;;;;;8.35;4.63;;;;;;;-145.63;42.11;37747.44;5032410;28;20033;-67
2023/08/15 09:42:48;;;;;;;7.18;4.90;;;;;;;-145.63;41.41;37745.50;5031083;28;20331;-66
2023/08/15 09:45:15;;;;;;;6.57;4.55;;;;;;;-145.63;42.37;37702.47;5024200;28;20029;-66
2023/08/15 09:47:42;;;;;;;7.63;4.70;;;;;;;-145.63;42.78;37710.31;5043053;28;20021;-67
2023/08/15 09:50:09;;;;;;;7.95;4.53;;;;;;;-145.63;42.63;37651.66;5042886;28;20029;-67
2023/08/15 09:52:40;;;;;;;5.47;4.90;;;;;;;-145.63;42.23;37686.84;5034666;28;20034;-66
2023/08/15 09:55:16;;;;;;;5.50;4.20;;;;;;;-145.63;41.24;37620.38;5029406;28;20056;-66
2023/08/15 09:57:43;;;;;;;4.95;4.20;;;;;;;-145.63;40.72;37688.78;5035028;28;20025;-67
2023/08/15 10:00:17;;;;;;;9.55;4.55;;;;;;;-145.63;42.03;37616.47;5031469;28;20043;-66
2023/08/15 10:02:55;;;;;;;9.57;4.40;;;;;;;-145.63;40.94;37618.41;5042574;28;20029;-67
2023/08/15 10:05:23;;;;;;;6.88;4.22;;;;;;;-145.63;40.78;37716.16;5027889;28;20152;-65
2023/08/15 10:07:49;;;;;;;6.55;4.28;;;;;;;-145.63;40.93;37759.19;5037031;28;20036;-67
2023/08/15 10:10:16;;;;;;;4.85;4.10;;;;;;;-145.63;41.15;37413.16;5033418;28;20026;-67
2023/08/15 10:12:44;;;;;;;7.78;5.00;;;;;;;-145.63;41.07;37600.81;5025434;28;20033;-66
2023/08/15 10:15:11;;;;;;;8.45;4.85;;;;;;;-145.63;41.32;37647.75;5022228;28;20345;-67
2023/08/15 10:17:37;;;;;;;6.85;4.68;;;;;;;-145.63;41.00;37636.00;5042843;28;20021;-67
2023/08/15 10:20:13;;;;;;;5.68;4.47;;;;;;;-145.63;40.82;37575.41;5026591;28;20052;-66
2023/08/15 10:22:39;;;;;;;8.30;4.70;;;;;;;-145.63;40.93;37602.78;5022969;28;20085;-66
2023/08/15 10:25:27;;;;;;;8.07;4.22;;;;;;;-145.63;40.83;37344.75;5029699;28;20092;-67
2023/08/15 10:27:55;;;;;;;7.32;4.68;;;;;;;-145.63;40.91;37624.28;5042787;28;20314;-67
2023/08/15 10:30:40;;;;;;;8.82;4.53;;;;;;;-145.63;40.94;37585.19;5031123;28;20064;-67
2023/08/15 10:33:14;;;;;;;5.03;4.28;;;;;;;-145.63;39.63;37647.75;5041218;28;20065;-67
2023/08/15 10:35:55;;;;;;;5.47;4.07;;;;;;;-145.63;39.18;37628.19;5026012;28;20093;-66
2023/08/15 10:38:31;;;;;;;6.97;4.00;;;;;;;-145.63;39.58;37606.69;5030673;28;20033;-66
2023/08/15 10:41:14;;;;;;;7.68;4.30;;;;;;;-145.63;38.63;37395.56;5028696;28;20060;-66
2023/08/15 10:43:47;;;;;;;8.73;4.32;;;;;;;-145.63;39.56;37618.41;5028790;28;20068;-66
2023/08/15 10:46:12;;;;;;;8.80;3.95;;;;;;;-145.63;39.07;37600.81;5025295;28;20025;-67
2023/08/15 10:48:41;;;;;;;5.75;3.90;;;;;;;-145.63;39.35;37577.38;5031397;28;20041;-67
2023/08/15 10:51:16;;;;;;;4.57;3.30;;;;;;;-145.63;37.80;37460.06;5035575;28;20334;-67
2023/08/15 10:53:41;;;;;;;5.70;4.10;;;;;;;-145.63;38.64;37591.06;5029989;28;20036;-66
2023/08/15 10:56:08;;;;;;;4.90;3.75;;;;;;;-145.63;38.94;37608.66;5035823;28;20037;-66
2023/08/15 10:58:36;;;;;;;6.28;3.95;;;;;;;-145.63;38.75;37542.19;5036453;28;20022;-66
2023/08/15 11:01:03;;;;;;;5.53;4.13;;;;;;;-145.63;39.24;37497.22;5042534;28;20196;-66
2023/08/15 11:03:28;;;;;;;5.60;3.70;;;;;;;-145.63;38.05;37512.84;5036118;28;20041;-66
2023/08/15 11:06:06;;;;;;;5.47;3.85;;;;;;;-145.63;38.12;37505.03;5043601;28;21369;-66
2023/08/15 11:08:31;;;;;;;4.88;4.25;;;;;;;-145.63;38.40;37487.44;5032328;28;20055;-65
2023/08/15 11:10:57;;;;;;;5.72;4.15;;;;;;;-145.63;38.48;37508.94;5034813;28;20033;-66
2023/08/15 11:13:22;;;;;;;7.88;4.05;;;;;;;-145.63;37.55;37524.59;5035761;28;20029;-66
2023/08/15 11:15:48;;;;;;;8.27;4.00;;;;;;;-145.63;36.29;37557.81;5030894;28;20053;-65